sensor_id;sensor_type;location;lat;lon;timestamp;pressure;altitude;pressure_sealevel;temperature;humidity
20860;BME280;10590;48.154;11.514;2023-02-12T00:02:20;97512.88;;;3.95;65.14
20860;BME280;10590;48.154;11.514;2023-02-12T00:07:22;97508.16;;;3.97;64.57
20860;BME280;10590;48.154;11.514;2023-02-12T00:12:23;97517.94;;;4.08;64.68
20860;BME280;10590;48.154;11.514;2023-02-12T00:17:26;97506.28;;;3.74;65.28
20860;BME280;10590;48.154;11.514;2023-02-12T00:22:28;97511.41;;;3.69;65.60
20860;BME280;10590;48.154;11.514;2023-02-12T00:27:31;97504.25;;;3.58;66.40
20860;BME280;10590;48.154;11.514;2023-02-12T00:32:34;97511.00;;;3.83;65.57
20860;BME280;10590;48.154;11.514;2023-02-12T00:37:36;97513.66;;;3.54;66.20
20860;BME280;10590;48.154;11.514;2023-02-12T00:42:38;97504.97;;;3.65;66.27
20860;BME280;10590;48.154;11.514;2023-02-12T00:47:41;97507.75;;;3.70;66.28
20860;BME280;10590;48.154;11.514;2023-02-12T00:52:42;97505.84;;;3.89;65.15
20860;BME280;10590;48.154;11.514;2023-02-12T00:57:44;97513.38;;;3.73;65.89
20860;BME280;10590;48.154;11.514;2023-02-12T01:02:47;97516.31;;;3.95;65.14
20860;BME280;10590;48.154;11.514;2023-02-12T01:07:49;97511.19;;;3.70;65.91
20860;BME280;10590;48.154;11.514;2023-02-12T01:12:51;97510.66;;;3.80;65.39
20860;BME280;10590;48.154;11.514;2023-02-12T01:17:54;97510.03;;;4.08;64.51
20860;BME280;10590;48.154;11.514;2023-02-12T01:22:56;97507.97;;;4.10;64.37
20860;BME280;10590;48.154;11.514;2023-02-12T01:27:57;97505.22;;;4.28;63.80
20860;BME280;10590;48.154;11.514;2023-02-12T01:33:00;97517.69;;;4.39;63.62
20860;BME280;10590;48.154;11.514;2023-02-12T01:38:02;97524.06;;;4.20;64.73
20860;BME280;10590;48.154;11.514;2023-02-12T01:43:05;97521.28;;;4.03;65.12
20860;BME280;10590;48.154;11.514;2023-02-12T01:48:08;97522.03;;;3.92;66.05
20860;BME280;10590;48.154;11.514;2023-02-12T01:53:10;97516.78;;;3.62;67.29
20860;BME280;10590;48.154;11.514;2023-02-12T01:58:19;97518.22;;;3.76;66.26
20860;BME280;10590;48.154;11.514;2023-02-12T02:03:22;97512.91;;;3.65;67.06
20860;BME280;10590;48.154;11.514;2023-02-12T02:08:24;97509.41;;;3.34;68.26
20860;BME280;10590;48.154;11.514;2023-02-12T02:13:26;97517.19;;;3.29;68.85
20860;BME280;10590;48.154;11.514;2023-02-12T02:18:52;97513.97;;;3.27;68.05
20860;BME280;10590;48.154;11.514;2023-02-12T02:29:43;97501.22;;;3.24;68.31
20860;BME280;10590;48.154;11.514;2023-02-12T02:34:51;97500.00;;;3.08;69.15
20860;BME280;10590;48.154;11.514;2023-02-12T02:39:59;97493.56;;;3.04;69.35
20860;BME280;10590;48.154;11.514;2023-02-12T02:45:09;97493.09;;;3.07;68.63
20860;BME280;10590;48.154;11.514;2023-02-12T02:50:16;97482.94;;;2.93;69.26
20860;BME280;10590;48.154;11.514;2023-02-12T02:55:19;97483.00;;;3.04;69.02
20860;BME280;10590;48.154;11.514;2023-02-12T03:00:25;97482.41;;;3.02;69.04
20860;BME280;10590;48.154;11.514;2023-02-12T03:05:32;97483.28;;;3.14;68.54
20860;BME280;10590;48.154;11.514;2023-02-12T03:10:40;97493.97;;;3.68;66.47
20860;BME280;10590;48.154;11.514;2023-02-12T03:15:46;97502.88;;;3.37;67.73
20860;BME280;10590;48.154;11.514;2023-02-12T03:20:57;97507.13;;;3.38;67.94
20860;BME280;10590;48.154;11.514;2023-02-12T03:26:05;97518.19;;;3.46;67.85
20860;BME280;10590;48.154;11.514;2023-02-12T03:31:13;97506.19;;;3.32;67.78
20860;BME280;10590;48.154;11.514;2023-02-12T03:36:25;97513.78;;;2.92;69.50
20860;BME280;10590;48.154;11.514;2023-02-12T03:41:38;97514.28;;;3.01;70.05
20860;BME280;10590;48.154;11.514;2023-02-12T03:46:47;97517.78;;;3.13;70.51
20860;BME280;10590;48.154;11.514;2023-02-12T03:51:52;97502.34;;;3.16;69.98
20860;BME280;10590;48.154;11.514;2023-02-12T03:56:58;97507.47;;;2.93;70.76
20860;BME280;10590;48.154;11.514;2023-02-12T04:02:02;97518.88;;;3.24;70.28
20860;BME280;10590;48.154;11.514;2023-02-12T04:07:05;97522.47;;;3.29;70.45
20860;BME280;10590;48.154;11.514;2023-02-12T04:12:16;97529.84;;;3.39;69.94
20860;BME280;10590;48.154;11.514;2023-02-12T04:17:28;97532.94;;;3.36;70.14
20860;BME280;10590;48.154;11.514;2023-02-12T04:22:45;97536.03;;;3.33;70.67
20860;BME280;10590;48.154;11.514;2023-02-12T04:27:56;97532.66;;;3.26;70.14
20860;BME280;10590;48.154;11.514;2023-02-12T04:33:02;97540.78;;;3.24;70.39
20860;BME280;10590;48.154;11.514;2023-02-12T04:38:11;97548.91;;;2.86;71.84
20860;BME280;10590;48.154;11.514;2023-02-12T04:43:25;97547.38;;;3.15;71.36
20860;BME280;10590;48.154;11.514;2023-02-12T04:48:27;97554.63;;;3.01;71.58
20860;BME280;10590;48.154;11.514;2023-02-12T04:53:30;97550.31;;;3.07;71.86
20860;BME280;10590;48.154;11.514;2023-02-12T04:58:31;97558.75;;;3.15;71.85
20860;BME280;10590;48.154;11.514;2023-02-12T05:03:33;97546.44;;;3.28;71.40
20860;BME280;10590;48.154;11.514;2023-02-12T05:08:36;97550.81;;;3.34;71.41
20860;BME280;10590;48.154;11.514;2023-02-12T05:13:38;97558.44;;;3.60;70.04
20860;BME280;10590;48.154;11.514;2023-02-12T05:18:41;97560.97;;;3.97;68.88
20860;BME280;10590;48.154;11.514;2023-02-12T05:23:44;97572.66;;;3.41;71.13
20860;BME280;10590;48.154;11.514;2023-02-12T05:28:45;97566.59;;;3.22;72.25
20860;BME280;10590;48.154;11.514;2023-02-12T05:33:48;97577.13;;;3.40;71.46
20860;BME280;10590;48.154;11.514;2023-02-12T05:38:57;97585.06;;;3.22;71.95
20860;BME280;10590;48.154;11.514;2023-02-12T05:43:59;97583.22;;;3.41;71.17
20860;BME280;10590;48.154;11.514;2023-02-12T05:49:01;97571.84;;;3.59;70.81
20860;BME280;10590;48.154;11.514;2023-02-12T05:54:05;97582.59;;;3.75;70.22
20860;BME280;10590;48.154;11.514;2023-02-12T05:59:12;97578.53;;;3.61;71.38
20860;BME280;10590;48.154;11.514;2023-02-12T06:04:16;97567.06;;;3.67;70.95
20860;BME280;10590;48.154;11.514;2023-02-12T06:09:19;97576.25;;;3.46;77.11
20860;BME280;10590;48.154;11.514;2023-02-12T06:14:21;97591.00;;;3.54;77.47
20860;BME280;10590;48.154;11.514;2023-02-12T06:19:23;97583.94;;;3.30;78.66
20860;BME280;10590;48.154;11.514;2023-02-12T06:24:26;97595.22;;;3.18;79.02
20860;BME280;10590;48.154;11.514;2023-02-12T06:29:28;97600.66;;;3.05;79.60
20860;BME280;10590;48.154;11.514;2023-02-12T06:34:30;97605.59;;;2.77;81.27
20860;BME280;10590;48.154;11.514;2023-02-12T06:39:32;97612.38;;;2.66;82.37
20860;BME280;10590;48.154;11.514;2023-02-12T06:44:34;97609.94;;;2.65;82.43
20860;BME280;10590;48.154;11.514;2023-02-12T06:49:36;97619.31;;;2.61;84.14
20860;BME280;10590;48.154;11.514;2023-02-12T06:54:39;97618.59;;;2.72;84.09
20860;BME280;10590;48.154;11.514;2023-02-12T06:59:40;97611.09;;;2.44;85.68
20860;BME280;10590;48.154;11.514;2023-02-12T07:04:42;97624.22;;;3.00;83.94
20860;BME280;10590;48.154;11.514;2023-02-12T07:09:45;97621.59;;;3.00;83.73
20860;BME280;10590;48.154;11.514;2023-02-12T07:14:46;97601.84;;;3.28;82.55
20860;BME280;10590;48.154;11.514;2023-02-12T07:19:48;97613.25;;;2.53;85.82
20860;BME280;10590;48.154;11.514;2023-02-12T07:24:51;97621.25;;;2.72;85.97
20860;BME280;10590;48.154;11.514;2023-02-12T07:29:53;97621.88;;;2.67;85.86
20860;BME280;10590;48.154;11.514;2023-02-12T07:34:54;97610.69;;;3.33;83.09
20860;BME280;10590;48.154;11.514;2023-02-12T07:39:57;97607.16;;;3.03;84.37
20860;BME280;10590;48.154;11.514;2023-02-12T07:44:59;97596.03;;;3.19;83.84
20860;BME280;10590;48.154;11.514;2023-02-12T07:50:00;97608.28;;;3.68;81.07
20860;BME280;10590;48.154;11.514;2023-02-12T07:55:04;97605.38;;;4.18;78.58
20860;BME280;10590;48.154;11.514;2023-02-12T08:00:07;97605.00;;;4.44;77.06
20860;BME280;10590;48.154;11.514;2023-02-12T08:05:09;97612.06;;;4.62;77.09
20860;BME280;10590;48.154;11.514;2023-02-12T08:10:13;97604.91;;;4.51;76.98
20860;BME280;10590;48.154;11.514;2023-02-12T08:15:14;97609.75;;;4.66;76.12
20860;BME280;10590;48.154;11.514;2023-02-12T08:20:16;97608.63;;;4.73;75.98
20860;BME280;10590;48.154;11.514;2023-02-12T08:25:19;97607.13;;;4.66;76.86
20860;BME280;10590;48.154;11.514;2023-02-12T08:30:21;97605.13;;;4.50;77.56
20860;BME280;10590;48.154;11.514;2023-02-12T08:35:22;97603.72;;;4.35;78.73
20860;BME280;10590;48.154;11.514;2023-02-12T08:40:25;97599.69;;;4.33;78.53
20860;BME280;10590;48.154;11.514;2023-02-12T08:45:27;97606.63;;;4.45;78.45
20860;BME280;10590;48.154;11.514;2023-02-12T08:50:28;97596.41;;;4.19;78.74
20860;BME280;10590;48.154;11.514;2023-02-12T08:55:33;97599.16;;;4.42;78.31
20860;BME280;10590;48.154;11.514;2023-02-12T09:00:35;97595.97;;;4.64;78.01
20860;BME280;10590;48.154;11.514;2023-02-12T09:05:40;97603.19;;;4.45;77.72
20860;BME280;10590;48.154;11.514;2023-02-12T09:10:44;97598.81;;;4.51;78.64
20860;BME280;10590;48.154;11.514;2023-02-12T09:15:46;97605.97;;;5.32;76.27
20860;BME280;10590;48.154;11.514;2023-02-12T09:20:47;97602.75;;;5.41;75.22
20860;BME280;10590;48.154;11.514;2023-02-12T09:25:50;97617.75;;;5.76;73.84
20860;BME280;10590;48.154;11.514;2023-02-12T09:30:52;97613.44;;;5.87;74.16
20860;BME280;10590;48.154;11.514;2023-02-12T09:35:54;97605.25;;;6.00;73.08
20860;BME280;10590;48.154;11.514;2023-02-12T09:41:11;97610.41;;;6.06;73.43
20860;BME280;10590;48.154;11.514;2023-02-12T09:46:25;97607.97;;;6.17;73.10
20860;BME280;10590;48.154;11.514;2023-02-12T09:51:29;97615.25;;;6.88;71.27
20860;BME280;10590;48.154;11.514;2023-02-12T09:56:36;97603.84;;;7.05;70.24
20860;BME280;10590;48.154;11.514;2023-02-12T10:01:38;97610.59;;;6.79;70.77
20860;BME280;10590;48.154;11.514;2023-02-12T10:06:45;97601.19;;;7.43;70.84
20860;BME280;10590;48.154;11.514;2023-02-12T10:11:59;97606.88;;;6.63;69.70
20860;BME280;10590;48.154;11.514;2023-02-12T10:17:10;97610.06;;;7.32;68.51
20860;BME280;10590;48.154;11.514;2023-02-12T10:22:21;97609.41;;;7.42;67.85
20860;BME280;10590;48.154;11.514;2023-02-12T10:27:37;97611.38;;;7.51;66.23
20860;BME280;10590;48.154;11.514;2023-02-12T10:32:42;97602.44;;;7.57;66.44
20860;BME280;10590;48.154;11.514;2023-02-12T10:37:49;97608.22;;;7.54;66.62
20860;BME280;10590;48.154;11.514;2023-02-12T10:42:56;97606.72;;;7.20;67.08
20860;BME280;10590;48.154;11.514;2023-02-12T10:48:06;97595.38;;;7.46;66.74
20860;BME280;10590;48.154;11.514;2023-02-12T10:53:14;97602.81;;;9.01;63.42
20860;BME280;10590;48.154;11.514;2023-02-12T10:58:22;97598.41;;;8.25;63.77
20860;BME280;10590;48.154;11.514;2023-02-12T11:03:28;97602.19;;;9.78;60.20
20860;BME280;10590;48.154;11.514;2023-02-12T11:08:37;97586.28;;;8.35;62.24
20860;BME280;10590;48.154;11.514;2023-02-12T11:13:45;97591.91;;;8.11;63.70
20860;BME280;10590;48.154;11.514;2023-02-12T11:18:57;97586.81;;;7.83;64.79
20860;BME280;10590;48.154;11.514;2023-02-12T11:24:21;97590.75;;;8.29;63.01
20860;BME280;10590;48.154;11.514;2023-02-12T11:29:31;97589.81;;;7.70;63.75
20860;BME280;10590;48.154;11.514;2023-02-12T11:34:34;97580.91;;;9.93;57.71
20860;BME280;10590;48.154;11.514;2023-02-12T11:39:38;97576.66;;;9.97;56.78
20860;BME280;10590;48.154;11.514;2023-02-12T11:44:47;97568.91;;;8.86;60.30
20860;BME280;10590;48.154;11.514;2023-02-12T11:49:51;97576.84;;;8.49;62.01
20860;BME280;10590;48.154;11.514;2023-02-12T11:54:56;97569.59;;;10.48;54.96
20860;BME280;10590;48.154;11.514;2023-02-12T12:00:02;97575.66;;;8.67;59.80
20860;BME280;10590;48.154;11.514;2023-02-12T12:05:08;97566.31;;;8.05;62.44
20860;BME280;10590;48.154;11.514;2023-02-12T12:10:15;97552.66;;;8.50;60.66
20860;BME280;10590;48.154;11.514;2023-02-12T12:15:23;97561.94;;;7.94;62.67
20860;BME280;10590;48.154;11.514;2023-02-12T12:20:48;97549.59;;;7.83;62.95
20860;BME280;10590;48.154;11.514;2023-02-12T12:25:54;97556.28;;;8.12;62.26
20860;BME280;10590;48.154;11.514;2023-02-12T12:31:03;97543.69;;;10.64;55.96
20860;BME280;10590;48.154;11.514;2023-02-12T12:42:18;97533.47;;;9.33;58.64
20860;BME280;10590;48.154;11.514;2023-02-12T12:47:35;97527.50;;;9.63;58.27
20860;BME280;10590;48.154;11.514;2023-02-12T12:53:02;97524.97;;;10.39;55.45
20860;BME280;10590;48.154;11.514;2023-02-12T12:58:11;97529.00;;;10.67;55.61
20860;BME280;10590;48.154;11.514;2023-02-12T13:03:41;97533.03;;;8.29;62.28
20860;BME280;10590;48.154;11.514;2023-02-12T13:09:10;97522.78;;;10.00;57.67
20860;BME280;10590;48.154;11.514;2023-02-12T13:14:30;97531.38;;;8.87;60.57
20860;BME280;10590;48.154;11.514;2023-02-12T13:19:52;97522.97;;;9.06;59.72
20860;BME280;10590;48.154;11.514;2023-02-12T13:25:03;97526.06;;;10.43;58.92
20860;BME280;10590;48.154;11.514;2023-02-12T13:30:18;97521.25;;;10.30;57.88
20860;BME280;10590;48.154;11.514;2023-02-12T13:35:23;97532.34;;;9.81;60.01
20860;BME280;10590;48.154;11.514;2023-02-12T13:40:27;97524.91;;;9.98;57.61
20860;BME280;10590;48.154;11.514;2023-02-12T13:45:39;97518.06;;;10.43;56.67
20860;BME280;10590;48.154;11.514;2023-02-12T13:50:48;97515.84;;;9.99;56.81
20860;BME280;10590;48.154;11.514;2023-02-12T13:56:01;97513.78;;;10.52;57.91
20860;BME280;10590;48.154;11.514;2023-02-12T14:01:08;97519.94;;;9.44;59.72
20860;BME280;10590;48.154;11.514;2023-02-12T14:06:15;97516.03;;;9.05;62.12
20860;BME280;10590;48.154;11.514;2023-02-12T14:11:19;97510.28;;;9.28;59.69
20860;BME280;10590;48.154;11.514;2023-02-12T14:16:38;97518.03;;;8.82;61.51
20860;BME280;10590;48.154;11.514;2023-02-12T14:21:42;97517.97;;;10.02;56.33
20860;BME280;10590;48.154;11.514;2023-02-12T14:26:44;97521.75;;;9.29;58.88
20860;BME280;10590;48.154;11.514;2023-02-12T14:31:45;97506.53;;;8.72;59.95
20860;BME280;10590;48.154;11.514;2023-02-12T14:37:09;97510.84;;;9.35;58.56
20860;BME280;10590;48.154;11.514;2023-02-12T14:42:43;97508.56;;;8.65;60.34
20860;BME280;10590;48.154;11.514;2023-02-12T14:47:54;97512.03;;;8.65;60.79
20860;BME280;10590;48.154;11.514;2023-02-12T14:53:03;97514.41;;;8.99;59.80
20860;BME280;10590;48.154;11.514;2023-02-12T14:58:16;97508.72;;;7.40;63.34
20860;BME280;10590;48.154;11.514;2023-02-12T15:03:22;97513.59;;;7.48;63.85
20860;BME280;10590;48.154;11.514;2023-02-12T15:08:32;97511.56;;;7.12;65.11
20860;BME280;10590;48.154;11.514;2023-02-12T15:13:45;97503.66;;;7.17;65.59
20860;BME280;10590;48.154;11.514;2023-02-12T15:18:52;97496.31;;;7.24;65.79
20860;BME280;10590;48.154;11.514;2023-02-12T15:24:05;97494.94;;;6.99;67.01
20860;BME280;10590;48.154;11.514;2023-02-12T15:29:16;97488.66;;;7.06;66.99
20860;BME280;10590;48.154;11.514;2023-02-12T15:34:22;97493.84;;;6.79;68.00
20860;BME280;10590;48.154;11.514;2023-02-12T15:39:26;97490.75;;;6.65;68.54
20860;BME280;10590;48.154;11.514;2023-02-12T15:44:29;97492.47;;;6.37;69.61
20860;BME280;10590;48.154;11.514;2023-02-12T15:49:34;97474.16;;;6.19;70.57
20860;BME280;10590;48.154;11.514;2023-02-12T15:54:38;97492.78;;;6.07;71.16
20860;BME280;10590;48.154;11.514;2023-02-12T15:59:40;97492.63;;;5.86;71.87
20860;BME280;10590;48.154;11.514;2023-02-12T16:04:42;97495.66;;;5.78;71.64
20860;BME280;10590;48.154;11.514;2023-02-12T16:09:46;97495.75;;;5.83;72.64
20860;BME280;10590;48.154;11.514;2023-02-12T16:14:50;97496.44;;;5.61;73.30
20860;BME280;10590;48.154;11.514;2023-02-12T16:19:56;97499.84;;;5.45;73.94
20860;BME280;10590;48.154;11.514;2023-02-12T16:25:00;97481.22;;;5.40;74.04
20860;BME280;10590;48.154;11.514;2023-02-12T16:30:05;97494.56;;;5.33;74.10
20860;BME280;10590;48.154;11.514;2023-02-12T16:35:24;97494.91;;;5.37;73.72
20860;BME280;10590;48.154;11.514;2023-02-12T16:40:33;97505.06;;;5.17;74.88
20860;BME280;10590;48.154;11.514;2023-02-12T16:45:44;97512.44;;;5.15;75.24
20860;BME280;10590;48.154;11.514;2023-02-12T16:50:49;97500.41;;;4.84;76.48
20860;BME280;10590;48.154;11.514;2023-02-12T16:55:52;97513.88;;;4.82;76.85
20860;BME280;10590;48.154;11.514;2023-02-12T17:00:55;97515.72;;;4.70;77.52
20860;BME280;10590;48.154;11.514;2023-02-12T17:05:57;97509.41;;;4.71;77.52
20860;BME280;10590;48.154;11.514;2023-02-12T17:11:00;97519.50;;;4.74;77.65
20860;BME280;10590;48.154;11.514;2023-02-12T17:16:02;97515.84;;;4.63;77.39
20860;BME280;10590;48.154;11.514;2023-02-12T17:21:07;97525.03;;;4.61;77.81
20860;BME280;10590;48.154;11.514;2023-02-12T17:26:11;97523.53;;;4.53;77.88
20860;BME280;10590;48.154;11.514;2023-02-12T17:31:12;97527.09;;;4.47;77.79
20860;BME280;10590;48.154;11.514;2023-02-12T17:36:14;97526.19;;;4.41;78.71
20860;BME280;10590;48.154;11.514;2023-02-12T17:41:17;97530.31;;;4.37;78.83
20860;BME280;10590;48.154;11.514;2023-02-12T17:46:21;97523.94;;;4.27;79.37
20860;BME280;10590;48.154;11.514;2023-02-12T17:51:23;97534.41;;;4.22;79.49
20860;BME280;10590;48.154;11.514;2023-02-12T17:56:26;97529.53;;;4.07;80.37
20860;BME280;10590;48.154;11.514;2023-02-12T18:01:27;97529.75;;;3.94;80.96
20860;BME280;10590;48.154;11.514;2023-02-12T18:06:30;97533.78;;;4.08;80.93
20860;BME280;10590;48.154;11.514;2023-02-12T18:11:33;97532.59;;;3.92;81.15
20860;BME280;10590;48.154;11.514;2023-02-12T18:16:34;97531.19;;;3.78;82.04
20860;BME280;10590;48.154;11.514;2023-02-12T18:21:36;97529.44;;;3.72;82.72
20860;BME280;10590;48.154;11.514;2023-02-12T18:26:39;97534.25;;;3.63;82.92
20860;BME280;10590;48.154;11.514;2023-02-12T18:31:41;97525.91;;;3.48;83.51
20860;BME280;10590;48.154;11.514;2023-02-12T18:36:42;97522.53;;;3.41;83.92
20860;BME280;10590;48.154;11.514;2023-02-12T18:41:45;97521.66;;;3.29;83.87
20860;BME280;10590;48.154;11.514;2023-02-12T18:46:47;97528.13;;;3.14;84.84
20860;BME280;10590;48.154;11.514;2023-02-12T18:51:48;97520.56;;;3.18;84.60
20860;BME280;10590;48.154;11.514;2023-02-12T18:56:52;97524.09;;;3.12;84.45
20860;BME280;10590;48.154;11.514;2023-02-12T19:01:54;97532.81;;;3.12;84.53
20860;BME280;10590;48.154;11.514;2023-02-12T19:06:56;97508.50;;;2.92;84.18
20860;BME280;10590;48.154;11.514;2023-02-12T19:11:59;97514.78;;;2.91;85.45
20860;BME280;10590;48.154;11.514;2023-02-12T19:17:01;97522.56;;;2.86;85.21
20860;BME280;10590;48.154;11.514;2023-02-12T19:22:02;97520.66;;;2.75;85.45
20860;BME280;10590;48.154;11.514;2023-02-12T19:27:05;97521.38;;;2.64;85.63
20860;BME280;10590;48.154;11.514;2023-02-12T19:32:07;97524.22;;;2.62;86.12
20860;BME280;10590;48.154;11.514;2023-02-12T19:37:08;97508.72;;;2.47;85.70
20860;BME280;10590;48.154;11.514;2023-02-12T19:42:13;97516.47;;;2.42;86.63
20860;BME280;10590;48.154;11.514;2023-02-12T19:47:16;97518.41;;;2.53;85.68
20860;BME280;10590;48.154;11.514;2023-02-12T19:52:18;97521.84;;;2.29;86.34
20860;BME280;10590;48.154;11.514;2023-02-12T19:57:21;97515.88;;;2.40;86.01
20860;BME280;10590;48.154;11.514;2023-02-12T20:02:23;97518.88;;;2.44;85.93
20860;BME280;10590;48.154;11.514;2023-02-12T20:07:24;97513.75;;;2.31;86.15
20860;BME280;10590;48.154;11.514;2023-02-12T20:12:27;97508.09;;;2.27;86.32
20860;BME280;10590;48.154;11.514;2023-02-12T20:17:29;97516.00;;;2.02;87.66
20860;BME280;10590;48.154;11.514;2023-02-12T20:22:33;97494.88;;;2.09;87.04
20860;BME280;10590;48.154;11.514;2023-02-12T20:27:37;97516.00;;;2.02;87.40
20860;BME280;10590;48.154;11.514;2023-02-12T20:32:39;97520.03;;;2.05;87.59
20860;BME280;10590;48.154;11.514;2023-02-12T20:37:44;97522.31;;;1.95;87.71
20860;BME280;10590;48.154;11.514;2023-02-12T20:42:47;97523.97;;;1.89;87.88
20860;BME280;10590;48.154;11.514;2023-02-12T20:47:48;97516.97;;;1.76;87.99
20860;BME280;10590;48.154;11.514;2023-02-12T20:52:50;97514.28;;;1.51;88.61
20860;BME280;10590;48.154;11.514;2023-02-12T20:57:53;97523.88;;;1.71;88.46
20860;BME280;10590;48.154;11.514;2023-02-12T21:02:55;97532.66;;;1.58;88.22
20860;BME280;10590;48.154;11.514;2023-02-12T21:07:57;97546.00;;;1.56;88.45
20860;BME280;10590;48.154;11.514;2023-02-12T21:13:00;97551.56;;;1.42;89.18
20860;BME280;10590;48.154;11.514;2023-02-12T21:18:02;97536.72;;;1.54;89.55
20860;BME280;10590;48.154;11.514;2023-02-12T21:23:11;97535.25;;;1.65;88.35
20860;BME280;10590;48.154;11.514;2023-02-12T21:28:14;97516.59;;;1.66;87.37
20860;BME280;10590;48.154;11.514;2023-02-12T21:33:15;97539.94;;;1.94;86.95
20860;BME280;10590;48.154;11.514;2023-02-12T21:38:17;97551.09;;;1.51;88.19
20860;BME280;10590;48.154;11.514;2023-02-12T21:43:20;97542.69;;;1.30;88.10
20860;BME280;10590;48.154;11.514;2023-02-12T21:48:21;97552.25;;;1.17;88.87
20860;BME280;10590;48.154;11.514;2023-02-12T21:53:23;97544.97;;;1.19;88.94
20860;BME280;10590;48.154;11.514;2023-02-12T21:58:26;97550.22;;;1.19;89.13
20860;BME280;10590;48.154;11.514;2023-02-12T22:03:28;97564.50;;;1.43;88.89
20860;BME280;10590;48.154;11.514;2023-02-12T22:08:31;97548.69;;;1.50;88.52
20860;BME280;10590;48.154;11.514;2023-02-12T22:13:34;97551.84;;;1.65;87.69
20860;BME280;10590;48.154;11.514;2023-02-12T22:18:37;97556.31;;;1.58;88.17
20860;BME280;10590;48.154;11.514;2023-02-12T22:23:40;97567.75;;;1.39;87.95
20860;BME280;10590;48.154;11.514;2023-02-12T22:28:44;97562.66;;;1.44;88.72
20860;BME280;10590;48.154;11.514;2023-02-12T22:33:46;97561.66;;;1.45;88.74
20860;BME280;10590;48.154;11.514;2023-02-12T22:38:48;97559.31;;;1.23;88.44
20860;BME280;10590;48.154;11.514;2023-02-12T22:43:51;97558.25;;;1.38;88.08
20860;BME280;10590;48.154;11.514;2023-02-12T22:48:53;97562.59;;;1.12;89.31
20860;BME280;10590;48.154;11.514;2023-02-12T22:53:54;97563.56;;;1.18;88.81
20860;BME280;10590;48.154;11.514;2023-02-12T22:58:59;97559.69;;;1.34;88.79
20860;BME280;10590;48.154;11.514;2023-02-12T23:04:01;97547.00;;;1.17;88.70
20860;BME280;10590;48.154;11.514;2023-02-12T23:09:03;97560.78;;;1.06;88.84
20860;BME280;10590;48.154;11.514;2023-02-12T23:14:06;97550.91;;;0.95;89.80
20860;BME280;10590;48.154;11.514;2023-02-12T23:19:09;97565.59;;;1.16;90.10
20860;BME280;10590;48.154;11.514;2023-02-12T23:24:12;97559.34;;;1.10;90.26
20860;BME280;10590;48.154;11.514;2023-02-12T23:29:15;97552.47;;;1.09;90.13
20860;BME280;10590;48.154;11.514;2023-02-12T23:34:17;97543.59;;;1.10;89.55
20860;BME280;10590;48.154;11.514;2023-02-12T23:39:18;97554.50;;;1.07;89.15
20860;BME280;10590;48.154;11.514;2023-02-12T23:44:21;97548.38;;;1.26;88.53
20860;BME280;10590;48.154;11.514;2023-02-12T23:49:23;97544.25;;;1.44;88.01
20860;BME280;10590;48.154;11.514;2023-02-12T23:54:24;97536.34;;;0.99;88.95
20860;BME280;10590;48.154;11.514;2023-02-12T23:59:27;97533.13;;;0.90;88.82
